Terminal Aerodrome Forecast
Issued by NWS New Orleans/Baton Rouge, LA

Home | Current Version | Previous Version | Text Only | Print | Product List | Glossary On
Versions: 1 2 3 4 5 6 7 8 9 10 11 12 13 14
000
FTUS44 KLIX 202320
TAFNEW
TAF
KNEW 202320Z 2100/2124 28003KT P6SM SKC
     FM210400 22009KT P6SM SKC
     FM210800 26007KT P6SM SKC
     FM211600 01004KT P6SM SCT040 PROB30 2117/2121 4SM -TSRA
      BKN040CB
     FM212200 14008KT P6SM SCT100 PROB30 2122/2123 4SM -TSRA
      BKN100CB=

USA.gov is the U.S. government's official web portal to all federal, state and local government web resources and services.